Airfield :
LOGIN :

Register | Disclaimer

   EN    FR    IT 

 










Legend :    VFR   Marginal VFR   IFR   Intensive IFR   Very Intensive IFR
Visi :
Ceiling :
>= 8 km
>= 3000ft
5 to 8 km
1000 to 3000 ft
1500m to 5 km
500 to 1000 ft
800 to 1500m
200 to 500 ft
< 800m
< 200 ft
Symbols :   Thunderstorms  Fog  Heavy snow  Heavy precipitations  Wind > 20 kt
SIGMETs :     Misc.  Thunderstorms  Icing  Turbulence  Mountain Waves  Volcanic Ashes







- Airport Elevation : 16 ft
- IATA code : EAS


LESO - San Sebastian Fuenterrabia

CURRENT METAR :
  • 221400Z 01006KT 320V050 9999 FEW040 16/12 Q0999

EXPIRED METARs :
  • 221330Z 02006KT 340V050 9999 FEW040 17/12 Q0999
  • 221300Z 03007KT 330V060 9999 FEW040 17/12 Q1000
  • 221230Z 02006KT 330V060 CAVOK 17/12 Q1000
  • 221200Z 04007KT CAVOK 17/12 Q1001
  • 221130Z 03005KT 340V060 CAVOK 17/12 Q1001

TAF TAF LESO
Valid from the 22 at 12:00 until the 23 at 12:00 UTC


221100Z 2212/2312 02009KT 9999 FEW015 TX18/2215Z TN15/2306Z
BECMG 2218/2222 18010KT
BECMG 2308/2312 30010KT
No reported NOTAMs for that airfield.



MET'MAP, your aeronautical weather chart ! - Copyright ORBIFLY December 2007 - Disclaimer

ORBIFLY MET'MAP TEAM :

Programming & Development : Alexandra Zaïnal
Concept & Development : Baudouin d'Aumeries
Co-Development & Prog : Marc-Olivier Méhu
Technical & hardware support : Manuel Goepfert

Contact : metmap@orbifly.com




SOURCES & CREDITS :

   NOAA